createdAt,value
2022-08-14T00:02:01.276Z,11.25
2022-08-14T00:04:42.479Z,12.35
2022-08-14T00:10:01.651Z,9.27
2022-08-14T00:12:33.866Z,11.00
2022-08-14T00:15:11.355Z,15.05
2022-08-14T00:17:47.833Z,9.77
2022-08-14T00:20:31.053Z,11.93
2022-08-14T00:23:12.198Z,10.02
2022-08-14T00:25:43.028Z,11.38
2022-08-14T00:28:14.969Z,12.02
2022-08-14T00:30:43.409Z,10.75
2022-08-14T00:33:15.214Z,11.63
2022-08-14T00:36:36.908Z,11.60
2022-08-14T00:38:36.037Z,11.35
2022-08-14T00:41:06.996Z,10.25
2022-08-14T00:43:41.793Z,19.15
2022-08-14T00:46:32.244Z,10.00
2022-08-14T00:49:02.174Z,10.77
2022-08-14T00:51:34.726Z,13.65
2022-08-14T00:54:20.872Z,10.85
2022-08-14T00:56:54.743Z,11.07
2022-08-14T00:59:25.218Z,16.10
2022-08-14T01:01:55.316Z,13.23
2022-08-14T01:04:38.139Z,14.75
2022-08-14T01:07:20.907Z,11.88
2022-08-14T01:09:50.856Z,13.40
2022-08-14T01:12:27.336Z,10.40
2022-08-14T01:14:59.707Z,12.68
2022-08-14T01:17:52.541Z,12.93
2022-08-14T01:20:40.743Z,12.73
2022-08-14T01:23:16.133Z,14.18
2022-08-14T01:25:47.290Z,13.27
2022-08-14T01:28:46.601Z,11.63
2022-08-14T01:31:08.756Z,13.48
2022-08-14T01:35:15.932Z,15.80
2022-08-14T01:36:36.671Z,11.45
2022-08-14T01:39:12.958Z,12.75
2022-08-14T01:41:43.384Z,11.65
2022-08-14T01:44:33.363Z,11.52
2022-08-14T01:47:09.600Z,11.65
2022-08-14T01:49:58.939Z,12.70
2022-08-14T01:52:33.551Z,11.93
2022-08-14T01:55:06.779Z,13.18
2022-08-14T01:58:01.024Z,11.90
2022-08-14T02:00:27.804Z,11.05
2022-08-14T02:02:57.123Z,11.90
2022-08-14T02:05:29.398Z,11.38
2022-08-14T02:08:08.761Z,17.17
2022-08-14T02:10:46.329Z,11.50
2022-08-14T02:13:17.450Z,13.20
2022-08-14T02:15:48.665Z,11.23
2022-08-14T02:20:51.312Z,12.82
2022-08-14T02:23:28.869Z,12.52
2022-08-14T02:26:24.994Z,13.52
2022-08-14T02:29:03.391Z,13.75
2022-08-14T02:31:43.327Z,15.95
2022-08-14T02:34:21.961Z,12.13
2022-08-14T02:37:04.249Z,14.57
2022-08-14T02:39:37.203Z,13.82
2022-08-14T02:42:12.818Z,13.18
2022-08-14T02:44:43.193Z,15.45
2022-08-14T02:47:20.817Z,15.43
2022-08-14T02:49:54.810Z,14.55
2022-08-14T02:52:56.879Z,16.60
2022-08-14T02:55:15.710Z,11.65
2022-08-14T02:57:58.032Z,12.00
2022-08-14T03:00:27.205Z,14.65
2022-08-14T03:02:58.875Z,12.85
2022-08-14T03:05:32.837Z,15.00
2022-08-14T03:08:08.918Z,12.27
2022-08-14T03:10:41.949Z,13.25
2022-08-14T03:13:19.484Z,12.98
2022-08-14T03:15:56.002Z,13.05
2022-08-14T03:18:31.246Z,13.75
2022-08-14T03:21:02.619Z,15.40
2022-08-14T03:23:36.379Z,12.77
2022-08-14T03:26:08.550Z,14.88
2022-08-14T03:28:40.406Z,18.27
2022-08-14T03:31:15.014Z,16.30
2022-08-14T03:33:44.848Z,13.02
2022-08-14T03:37:38.011Z,15.10
2022-08-14T03:39:21.653Z,13.13
2022-08-14T03:41:52.543Z,14.50
2022-08-14T03:45:27.375Z,14.10
2022-08-14T03:47:12.127Z,15.35
2022-08-14T03:49:42.253Z,14.32
2022-08-14T03:52:27.808Z,16.45
2022-08-14T03:55:00.906Z,14.18
2022-08-14T03:57:32.808Z,13.75
2022-08-14T04:00:13.818Z,12.13
2022-08-14T04:02:58.933Z,13.75
2022-08-14T04:05:27.388Z,12.85
2022-08-14T04:08:08.467Z,12.82
2022-08-14T04:10:46.236Z,17.80
2022-08-14T04:13:18.026Z,15.03
2022-08-14T04:16:01.628Z,16.25
2022-08-14T04:18:33.838Z,14.35
2022-08-14T04:21:04.504Z,17.73
2022-08-14T04:23:35.253Z,15.65
2022-08-14T04:26:04.802Z,17.27
2022-08-14T04:29:05.315Z,14.73
2022-08-14T04:32:58.245Z,15.63
2022-08-14T04:34:20.873Z,19.40
2022-08-14T04:37:13.797Z,14.63
2022-08-14T04:40:13.575Z,18.13
2022-08-14T04:43:00.998Z,17.95
2022-08-14T04:45:40.516Z,15.40
2022-08-14T04:48:38.712Z,17.90
2022-08-14T04:51:05.289Z,15.88
2022-08-14T04:53:36.049Z,16.88
2022-08-14T04:56:20.624Z,18.58
2022-08-14T04:59:04.941Z,13.15
2022-08-14T05:01:39.843Z,13.27
2022-08-14T05:04:14.665Z,13.05
2022-08-14T05:06:44.931Z,13.85
2022-08-14T05:09:14.429Z,12.15
2022-08-14T05:11:44.238Z,13.52
2022-08-14T05:14:42.726Z,15.23
2022-08-14T05:17:01.686Z,13.85
2022-08-14T05:19:44.705Z,13.35
2022-08-14T05:22:27.084Z,11.50
2022-08-14T05:24:55.519Z,12.15
2022-08-14T05:27:24.154Z,11.48
2022-08-14T05:29:57.388Z,13.00
2022-08-14T05:32:27.447Z,12.77
2022-08-14T05:34:59.081Z,12.48
2022-08-14T05:37:29.935Z,11.90
2022-08-14T05:40:00.434Z,14.77
2022-08-14T05:42:34.120Z,13.90
2022-08-14T05:45:04.297Z,11.20
2022-08-14T05:47:33.894Z,10.82
2022-08-14T05:50:17.613Z,11.43
2022-08-14T05:52:48.025Z,9.82
2022-08-14T05:55:16.817Z,10.38
2022-08-14T05:57:55.158Z,13.30
2022-08-14T06:00:34.834Z,10.25
2022-08-14T06:03:09.310Z,10.60
2022-08-14T06:05:39.236Z,11.50
2022-08-14T06:08:31.349Z,9.88
2022-08-14T06:11:08.092Z,10.40
2022-08-14T06:13:45.294Z,12.80
2022-08-14T06:16:17.518Z,10.05
2022-08-14T06:18:48.548Z,9.68
2022-08-14T06:21:22.522Z,13.93
2022-08-14T06:23:50.811Z,9.55
2022-08-14T06:26:20.506Z,9.95
2022-08-14T06:28:52.131Z,14.02
2022-08-14T06:31:22.826Z,10.07
2022-08-14T06:35:03.751Z,12.23
2022-08-14T06:36:42.862Z,11.48
2022-08-14T06:39:12.605Z,12.07
2022-08-14T06:41:59.712Z,10.00
2022-08-14T06:44:30.900Z,13.02
2022-08-14T06:47:01.891Z,10.88
2022-08-14T06:49:30.170Z,12.75
2022-08-14T06:52:00.757Z,11.13
2022-08-14T06:54:31.069Z,12.52
2022-08-14T06:57:00.183Z,11.13
2022-08-14T06:59:28.273Z,9.20
2022-08-14T07:02:17.607Z,10.35
2022-08-14T07:05:05.396Z,15.13
2022-08-14T07:07:40.332Z,9.93
2022-08-14T07:10:13.336Z,9.77
2022-08-14T07:13:00.901Z,13.50
2022-08-14T07:15:32.462Z,10.82
2022-08-14T07:18:03.722Z,11.68
2022-08-14T07:20:36.856Z,12.52
2022-08-14T07:23:11.159Z,12.77
2022-08-14T07:25:51.599Z,12.07
2022-08-14T07:28:23.496Z,10.63
2022-08-14T07:31:04.744Z,11.27
2022-08-14T07:33:37.825Z,10.85
2022-08-14T07:36:27.006Z,10.30
2022-08-14T07:39:00.283Z,11.60
2022-08-14T07:41:33.680Z,12.57
2022-08-14T07:44:29.076Z,11.25
2022-08-14T07:46:50.820Z,13.73
2022-08-14T07:49:19.930Z,8.27
2022-08-14T07:51:49.417Z,8.10
2022-08-14T07:54:23.410Z,10.50
2022-08-14T07:57:00.076Z,10.57
2022-08-14T07:59:41.958Z,9.35
2022-08-14T08:02:19.116Z,9.35
2022-08-14T08:04:54.249Z,9.52
2022-08-14T08:07:24.072Z,10.00
2022-08-14T08:09:58.075Z,13.13
2022-08-14T08:12:31.214Z,14.55
2022-08-14T08:15:05.964Z,10.95
2022-08-14T08:17:38.344Z,11.02
2022-08-14T08:20:12.034Z,9.17
2022-08-14T08:22:40.834Z,8.70
2022-08-14T08:25:17.820Z,11.63
2022-08-14T08:27:59.886Z,11.93
2022-08-14T08:30:29.095Z,13.43
2022-08-14T08:32:59.602Z,14.45
2022-08-14T08:35:46.137Z,8.82
2022-08-14T08:39:17.145Z,13.98
2022-08-14T08:41:10.847Z,12.50
2022-08-14T08:43:46.076Z,12.15
2022-08-14T08:46:23.875Z,10.95
2022-08-14T08:51:25.111Z,14.35
2022-08-14T08:54:00.795Z,10.00
2022-08-14T08:56:42.236Z,11.55
2022-08-14T08:59:27.160Z,13.13
2022-08-14T09:02:01.029Z,11.68
2022-08-14T09:04:30.637Z,12.82
2022-08-14T09:07:10.848Z,9.45
2022-08-14T09:09:54.249Z,14.38
2022-08-14T09:12:31.354Z,11.77
2022-08-14T09:15:02.310Z,10.20
2022-08-14T09:17:33.191Z,10.25
2022-08-14T09:20:05.602Z,9.18
2022-08-14T09:22:42.572Z,7.70
2022-08-14T09:25:17.222Z,15.25
2022-08-14T09:27:50.730Z,8.45
2022-08-14T09:30:32.971Z,9.77
2022-08-14T09:33:56.250Z,11.13
2022-08-14T09:36:56.609Z,7.55
2022-08-14T09:39:42.593Z,12.20
2022-08-14T09:42:33.138Z,11.07
2022-08-14T09:45:15.095Z,11.45
2022-08-14T09:47:49.184Z,9.02
2022-08-14T09:50:25.891Z,10.38
2022-08-14T09:52:56.733Z,9.73
2022-08-14T09:55:29.772Z,9.30
2022-08-14T09:58:15.007Z,7.63
2022-08-14T10:00:50.922Z,7.60
2022-08-14T10:03:33.891Z,10.70
2022-08-14T10:06:07.458Z,8.05
2022-08-14T10:08:51.007Z,10.48
2022-08-14T10:11:23.316Z,10.43
2022-08-14T10:13:54.410Z,7.55
2022-08-14T10:16:33.784Z,9.00
2022-08-14T10:19:09.623Z,8.98
2022-08-14T10:21:58.168Z,6.03
2022-08-14T10:24:36.316Z,8.65
2022-08-14T10:27:05.597Z,9.25
2022-08-14T10:29:36.126Z,8.30
2022-08-14T10:32:17.870Z,13.95
2022-08-14T10:35:13.406Z,8.00
2022-08-14T10:37:48.093Z,6.03
2022-08-14T10:40:38.711Z,8.23
2022-08-14T10:43:23.196Z,6.90
2022-08-14T10:46:03.513Z,7.22
2022-08-14T10:49:00.879Z,10.05
2022-08-14T10:51:33.898Z,12.88
2022-08-14T10:54:16.846Z,8.75
2022-08-14T10:56:57.466Z,10.88
2022-08-14T10:59:36.217Z,5.65
2022-08-14T11:05:09.043Z,5.53
2022-08-14T11:07:39.683Z,7.88
2022-08-14T11:10:10.392Z,9.45
2022-08-14T11:12:46.696Z,7.07
2022-08-14T11:15:17.799Z,6.68
2022-08-14T11:17:47.327Z,9.18
2022-08-14T11:20:21.076Z,8.45
2022-08-14T11:22:57.831Z,8.05
2022-08-14T11:25:36.791Z,7.15
2022-08-14T11:28:14.847Z,8.25
2022-08-14T11:30:54.148Z,6.97
2022-08-14T11:33:30.981Z,10.57
2022-08-14T11:36:01.860Z,6.25
2022-08-14T11:38:37.894Z,9.15
2022-08-14T11:41:07.548Z,7.75
2022-08-14T11:43:46.864Z,7.57
2022-08-14T11:46:30.389Z,7.88
2022-08-14T11:49:07.061Z,5.23
2022-08-14T11:51:52.890Z,10.13
2022-08-14T11:54:34.185Z,7.07
2022-08-14T11:57:04.727Z,6.50
2022-08-14T11:59:33.991Z,7.85
2022-08-14T12:02:38.975Z,8.15
2022-08-14T12:04:59.531Z,11.05
2022-08-14T12:07:29.103Z,9.15
2022-08-14T12:10:01.055Z,10.82
2022-08-14T12:12:54.857Z,6.68
2022-08-14T12:15:32.190Z,8.10
2022-08-14T12:18:02.162Z,10.95
2022-08-14T12:20:37.494Z,12.02
2022-08-14T12:23:24.746Z,8.77
2022-08-14T12:26:31.936Z,11.32
2022-08-14T12:28:59.749Z,7.93
2022-08-14T12:31:28.611Z,9.18
2022-08-14T12:34:10.157Z,10.18
2022-08-14T12:36:39.952Z,9.85
2022-08-14T12:39:21.416Z,5.63
2022-08-14T12:41:53.747Z,10.82
2022-08-14T12:44:32.159Z,11.13
2022-08-14T12:47:06.757Z,9.18
2022-08-14T12:49:35.348Z,8.73
2022-08-14T12:52:04.957Z,11.77
2022-08-14T12:54:50.531Z,6.80
2022-08-14T12:57:39.175Z,5.70
2022-08-14T13:00:23.208Z,8.50
2022-08-14T13:02:56.796Z,6.97
2022-08-14T13:05:27.468Z,7.75
2022-08-14T13:07:57.299Z,9.52
2022-08-14T13:10:47.055Z,7.60
2022-08-14T13:13:23.248Z,7.47
2022-08-14T13:15:57.169Z,7.45
2022-08-14T13:18:28.005Z,9.05
2022-08-14T13:21:01.182Z,8.82
2022-08-14T13:23:36.257Z,8.18
2022-08-14T13:26:08.545Z,6.63
2022-08-14T13:29:01.394Z,6.13
2022-08-14T13:31:34.508Z,5.30
2022-08-14T13:34:04.530Z,6.65
2022-08-14T13:36:51.417Z,9.02
2022-08-14T13:39:23.457Z,5.88
2022-08-14T13:41:55.598Z,10.65
2022-08-14T13:44:28.751Z,11.07
2022-08-14T13:46:58.177Z,5.95
2022-08-14T13:49:29.188Z,7.18
2022-08-14T13:51:59.908Z,5.50
2022-08-14T13:54:32.742Z,5.55
2022-08-14T13:57:03.694Z,5.15
2022-08-14T13:59:37.773Z,6.22
2022-08-14T14:02:10.625Z,6.90
2022-08-14T14:05:04.504Z,6.45
2022-08-14T14:07:34.933Z,8.43
2022-08-14T14:10:13.420Z,8.77
2022-08-14T14:12:47.884Z,5.55
2022-08-14T14:15:28.675Z,4.72
2022-08-14T14:18:34.520Z,6.55
2022-08-14T14:21:06.600Z,5.20
2022-08-14T14:23:38.139Z,8.30
2022-08-14T14:26:08.067Z,9.18
2022-08-14T14:28:45.261Z,5.82
2022-08-14T14:31:13.573Z,10.80
2022-08-14T14:33:48.615Z,8.57
2022-08-14T14:36:21.550Z,5.10
2022-08-14T14:38:53.653Z,8.02
2022-08-14T14:41:24.824Z,5.80
2022-08-14T14:43:57.728Z,7.00
2022-08-14T14:46:36.931Z,5.85
2022-08-14T14:49:07.761Z,6.32
2022-08-14T14:51:43.389Z,6.65
2022-08-14T14:54:13.055Z,5.38
2022-08-14T14:56:50.840Z,6.70
2022-08-14T14:59:24.033Z,4.07
2022-08-14T15:01:55.808Z,6.47
2022-08-14T15:04:26.176Z,7.82
2022-08-14T15:06:54.506Z,5.88
2022-08-14T15:09:25.035Z,7.25
2022-08-14T15:11:53.111Z,6.57
2022-08-14T15:14:55.854Z,6.97
2022-08-14T15:17:13.556Z,5.72
2022-08-14T15:19:42.082Z,6.20
2022-08-14T15:22:25.502Z,7.10
2022-08-14T15:24:53.709Z,5.28
2022-08-14T15:27:26.713Z,5.78
2022-08-14T15:29:55.696Z,5.57
2022-08-14T15:32:25.496Z,8.48
2022-08-14T15:34:58.285Z,3.83
2022-08-14T15:37:26.362Z,4.38
2022-08-14T15:40:02.437Z,6.53
2022-08-14T15:42:37.330Z,3.63
2022-08-14T15:45:12.629Z,6.80
2022-08-14T15:47:44.455Z,7.05
2022-08-14T15:50:13.185Z,10.88
2022-08-14T15:52:42.864Z,7.55
2022-08-14T15:55:16.192Z,9.80
2022-08-14T15:57:51.264Z,6.78
2022-08-14T16:00:49.647Z,6.38
2022-08-14T16:03:24.816Z,6.90
2022-08-14T16:05:56.557Z,6.40
2022-08-14T16:08:28.853Z,12.10
2022-08-14T16:10:59.282Z,4.95
2022-08-14T16:13:39.834Z,5.82
2022-08-14T16:16:47.462Z,7.50
2022-08-14T16:19:10.085Z,8.07
2022-08-14T16:22:01.683Z,5.97
2022-08-14T16:24:33.019Z,5.88
2022-08-14T16:27:01.739Z,8.18
2022-08-14T16:29:31.357Z,6.75
2022-08-14T16:32:32.485Z,5.40
2022-08-14T16:34:55.862Z,6.57
2022-08-14T16:37:30.477Z,10.30
2022-08-14T16:40:01.054Z,5.10
2022-08-14T16:43:02.340Z,10.98
2022-08-14T16:45:26.095Z,5.15
2022-08-14T16:47:56.025Z,7.45
2022-08-14T16:50:40.481Z,6.60
2022-08-14T16:53:17.847Z,7.43
2022-08-14T16:55:53.345Z,8.60
2022-08-14T16:58:27.094Z,9.15
2022-08-14T17:01:22.776Z,9.20
2022-08-14T17:03:56.393Z,5.93
2022-08-14T17:06:53.879Z,7.90
2022-08-14T17:09:29.060Z,6.25
2022-08-14T17:12:00.355Z,8.57
2022-08-14T17:14:54.769Z,9.63
2022-08-14T17:17:27.589Z,11.55
2022-08-14T17:20:33.916Z,10.57
2022-08-14T17:22:56.627Z,10.10
2022-08-14T17:25:26.538Z,12.20
2022-08-14T17:28:49.983Z,10.57
2022-08-14T17:31:04.769Z,8.60
2022-08-14T17:33:44.264Z,11.35
2022-08-14T17:39:07.295Z,9.63
2022-08-14T17:44:20.143Z,9.38
2022-08-14T17:46:55.195Z,11.88
2022-08-14T17:49:28.298Z,8.80
2022-08-14T17:52:07.738Z,10.55
2022-08-14T17:54:53.027Z,10.32
2022-08-14T17:57:28.391Z,9.70
2022-08-14T17:59:59.051Z,9.40
2022-08-14T18:02:31.179Z,12.00
2022-08-14T18:05:03.012Z,13.50
2022-08-14T18:08:00.340Z,7.10
2022-08-14T18:10:54.821Z,10.38
2022-08-14T18:13:10.979Z,8.57
2022-08-14T18:15:41.414Z,10.93
2022-08-14T18:18:11.949Z,7.95
2022-08-14T18:21:40.068Z,10.20
2022-08-14T18:23:31.612Z,10.50
2022-08-14T18:26:04.847Z,12.48
2022-08-14T18:28:51.287Z,19.05
2022-08-14T18:31:43.664Z,11.40
2022-08-14T18:34:29.804Z,10.93
2022-08-14T18:37:14.325Z,8.73
2022-08-14T18:40:01.239Z,9.75
2022-08-14T18:42:46.730Z,11.48
2022-08-14T18:45:18.548Z,11.77
2022-08-14T18:48:14.486Z,11.60
2022-08-14T18:50:52.420Z,8.93
2022-08-14T18:53:24.872Z,17.67
2022-08-14T18:58:46.230Z,10.70
2022-08-14T19:01:24.876Z,9.35
2022-08-14T19:03:57.607Z,9.63
2022-08-14T19:06:55.818Z,9.60
2022-08-14T19:09:57.916Z,12.25
2022-08-14T19:13:13.204Z,12.88
2022-08-14T19:16:04.435Z,10.50
2022-08-14T19:18:38.589Z,8.88
2022-08-14T19:21:13.194Z,8.90
2022-08-14T19:23:44.638Z,14.88
2022-08-14T19:26:37.047Z,11.15
2022-08-14T19:29:37.772Z,7.70
2022-08-14T19:32:40.914Z,10.57
2022-08-14T19:35:55.967Z,10.43
2022-08-14T19:38:48.094Z,8.98
2022-08-14T19:41:16.953Z,13.07
2022-08-14T19:43:56.191Z,11.88
2022-08-14T19:46:38.452Z,11.63
2022-08-14T19:50:30.339Z,15.18
2022-08-14T19:52:22.365Z,10.52
2022-08-14T19:54:54.253Z,10.30
2022-08-14T19:57:24.604Z,10.07
2022-08-14T20:00:04.536Z,21.70
2022-08-14T20:02:41.114Z,12.90
2022-08-14T20:05:12.434Z,13.02
2022-08-14T20:07:59.945Z,11.75
2022-08-14T20:11:07.362Z,13.07
2022-08-14T20:13:32.172Z,15.13
2022-08-14T20:16:12.168Z,12.00
2022-08-14T20:18:50.037Z,12.63
2022-08-14T20:21:21.386Z,13.48
2022-08-14T20:23:50.091Z,18.23
2022-08-14T20:26:31.552Z,12.30
2022-08-14T20:29:04.727Z,10.63
2022-08-14T20:31:36.390Z,12.68
2022-08-14T20:34:06.798Z,15.27
2022-08-14T20:36:40.926Z,12.95
2022-08-14T20:39:15.271Z,14.85
2022-08-14T20:41:51.442Z,14.20
2022-08-14T20:44:40.337Z,12.80
2022-08-14T20:47:08.568Z,17.33
2022-08-14T20:49:37.358Z,11.52
2022-08-14T20:52:19.849Z,14.18
2022-08-14T20:54:51.737Z,15.40
2022-08-14T20:57:20.828Z,14.43
2022-08-14T20:59:52.935Z,11.90
2022-08-14T21:02:46.802Z,19.20
2022-08-14T21:05:22.460Z,12.45
2022-08-14T21:08:08.097Z,16.20
2022-08-14T21:10:44.183Z,16.20
2022-08-14T21:14:09.009Z,14.07
2022-08-14T21:16:33.218Z,12.35
2022-08-14T21:19:01.816Z,11.77
2022-08-14T21:21:40.531Z,14.07
2022-08-14T21:24:38.903Z,14.07
2022-08-14T21:27:12.411Z,15.50
2022-08-14T21:29:53.658Z,15.00
2022-08-14T21:32:35.770Z,13.10
2022-08-14T21:35:09.971Z,16.73
2022-08-14T21:37:43.765Z,19.30
2022-08-14T21:40:40.583Z,16.65
2022-08-14T21:43:01.538Z,24.73
2022-08-14T21:45:35.638Z,20.10
2022-08-14T21:48:10.525Z,13.32
2022-08-14T21:51:01.676Z,13.00
2022-08-14T21:53:34.062Z,15.67
2022-08-14T21:56:03.815Z,15.70
2022-08-14T21:58:54.462Z,13.10
2022-08-14T22:01:21.615Z,15.30
2022-08-14T22:03:55.012Z,17.27
2022-08-14T22:06:28.951Z,15.48
2022-08-14T22:08:58.280Z,14.50
2022-08-14T22:11:27.669Z,14.45
2022-08-14T22:14:02.404Z,18.65
2022-08-14T22:17:01.975Z,17.45
2022-08-14T22:19:43.280Z,14.43
2022-08-14T22:22:17.460Z,15.10
2022-08-14T22:24:53.793Z,14.25
2022-08-14T22:27:31.288Z,15.60
2022-08-14T22:30:02.261Z,16.13
2022-08-14T22:32:56.354Z,16.73
2022-08-14T22:35:23.436Z,18.08
2022-08-14T22:38:01.474Z,18.65
2022-08-14T22:41:25.808Z,17.77
2022-08-14T22:43:34.922Z,14.07
2022-08-14T22:48:43.182Z,15.27
2022-08-14T22:51:13.542Z,14.48
2022-08-14T22:53:44.875Z,16.05
2022-08-14T22:56:21.284Z,17.00
2022-08-14T22:58:53.948Z,17.60
2022-08-14T23:01:46.149Z,17.10
2022-08-14T23:04:34.907Z,15.93
2022-08-14T23:07:21.651Z,18.33
2022-08-14T23:09:56.581Z,18.20
2022-08-14T23:12:29.555Z,17.70
2022-08-14T23:14:59.545Z,17.58
2022-08-14T23:17:39.003Z,16.90
2022-08-14T23:20:19.099Z,19.92
2022-08-14T23:22:51.737Z,18.35
2022-08-14T23:25:57.462Z,17.05
2022-08-14T23:28:34.310Z,16.98
2022-08-14T23:31:08.509Z,17.80
2022-08-14T23:33:45.733Z,20.42
2022-08-14T23:36:32.783Z,18.35
2022-08-14T23:39:10.416Z,17.67
2022-08-14T23:41:45.932Z,14.43
2022-08-14T23:44:21.728Z,22.85
2022-08-14T23:46:52.580Z,20.40
2022-08-14T23:49:24.587Z,20.58
2022-08-14T23:52:51.604Z,15.77
2022-08-14T23:54:48.920Z,16.30
2022-08-14T23:57:19.650Z,14.88
2022-08-14T23:59:54.929Z,22.30
